createdAt,value
2018-12-22T00:00:25.782Z,19.53
2018-12-22T00:02:54.125Z,19.60
2018-12-22T00:05:22.945Z,18.70
2018-12-22T00:07:51.168Z,18.93
2018-12-22T00:10:19.461Z,19.77
2018-12-22T00:12:47.624Z,18.57
2018-12-22T00:15:16.377Z,19.07
2018-12-22T00:17:44.561Z,17.60
2018-12-22T00:20:12.959Z,18.60
2018-12-22T00:22:41.481Z,19.30
2018-12-22T00:25:10.322Z,18.10
2018-12-22T00:27:38.811Z,18.70
2018-12-22T00:30:07.886Z,18.87
2018-12-22T00:32:36.177Z,18.80
2018-12-22T00:35:04.875Z,18.73
2018-12-22T00:37:33.122Z,18.70
2018-12-22T00:40:01.893Z,18.10
2018-12-22T00:42:30.180Z,19.40
2018-12-22T00:44:58.481Z,18.67
2018-12-22T00:47:27.362Z,17.97
2018-12-22T00:49:55.593Z,18.50
2018-12-22T00:52:23.818Z,17.60
2018-12-22T00:54:52.098Z,18.90
2018-12-22T00:57:20.517Z,17.90
2018-12-22T00:59:48.627Z,17.10
2018-12-22T01:02:17.263Z,17.60
2018-12-22T01:04:45.439Z,16.57
2018-12-22T01:07:13.631Z,17.30
2018-12-22T01:09:42.899Z,16.90
2018-12-22T01:12:11.199Z,16.83
2018-12-22T01:14:39.396Z,17.57
2018-12-22T01:17:07.844Z,16.73
2018-12-22T01:19:36.248Z,16.13
2018-12-22T01:22:04.540Z,17.90
2018-12-22T01:24:32.903Z,18.10
2018-12-22T01:27:01.157Z,17.70
2018-12-22T01:29:29.668Z,18.20
2018-12-22T01:31:57.913Z,19.10
2018-12-22T01:34:26.996Z,17.63
2018-12-22T01:36:55.513Z,18.80
2018-12-22T01:39:23.708Z,18.83
2018-12-22T01:41:51.930Z,18.80
2018-12-22T01:44:20.212Z,19.07
2018-12-22T01:46:48.532Z,18.50
2018-12-22T01:49:16.759Z,18.87
2018-12-22T01:51:45.098Z,18.53
2018-12-22T01:54:13.300Z,19.03
2018-12-22T01:56:41.624Z,20.53
2018-12-22T01:59:09.778Z,19.90
2018-12-22T02:01:37.994Z,19.23
2018-12-22T02:04:06.302Z,19.67
2018-12-22T02:06:34.732Z,20.73
2018-12-22T02:09:03.640Z,20.03
2018-12-22T02:11:31.823Z,20.07
2018-12-22T02:14:00.285Z,21.27
2018-12-22T02:16:28.493Z,20.93
2018-12-22T02:18:56.735Z,20.30
2018-12-22T02:21:24.968Z,20.97
2018-12-22T02:23:53.869Z,20.30
2018-12-22T02:26:22.144Z,21.23
2018-12-22T02:28:56.532Z,20.37
2018-12-22T02:31:20.635Z,21.67
2018-12-22T02:33:48.867Z,21.13
2018-12-22T02:36:17.130Z,20.57
2018-12-22T02:38:45.292Z,21.30
2018-12-22T02:41:13.605Z,20.53
2018-12-22T02:43:41.827Z,21.20
2018-12-22T02:48:44.822Z,21.97
2018-12-22T02:51:13.143Z,21.57
2018-12-22T02:53:41.310Z,22.30
2018-12-22T02:56:09.624Z,21.67
2018-12-22T02:58:37.858Z,22.30
2018-12-22T03:01:06.107Z,20.83
2018-12-22T03:03:34.387Z,21.40
2018-12-22T03:06:02.569Z,22.20
2018-12-22T03:08:30.837Z,21.00
2018-12-22T03:10:58.963Z,23.03
2018-12-22T03:13:27.209Z,21.90
2018-12-22T03:15:55.343Z,22.20
2018-12-22T03:18:23.647Z,21.60
2018-12-22T03:20:51.737Z,21.53
2018-12-22T03:23:20.021Z,22.00
2018-12-22T03:25:48.307Z,21.60
2018-12-22T03:28:16.418Z,22.07
2018-12-22T03:30:44.692Z,21.90
2018-12-22T03:33:12.997Z,21.50
2018-12-22T03:35:41.214Z,20.37
2018-12-22T03:38:09.376Z,20.87
2018-12-22T03:40:37.558Z,20.73
2018-12-22T03:43:05.840Z,20.60
2018-12-22T03:45:34.218Z,20.90
2018-12-22T03:48:03.443Z,19.20
2018-12-22T03:50:31.623Z,19.53
2018-12-22T03:53:00.535Z,20.00
2018-12-22T03:55:28.709Z,20.50
2018-12-22T03:57:56.963Z,19.77
2018-12-22T04:00:25.501Z,19.67
2018-12-22T04:02:53.895Z,19.93
2018-12-22T04:05:22.106Z,19.73
2018-12-22T04:07:50.255Z,19.27
2018-12-22T04:10:18.486Z,19.60
2018-12-22T04:12:46.791Z,19.47
2018-12-22T04:15:15.067Z,19.03
2018-12-22T04:17:43.238Z,17.10
2018-12-22T04:20:11.948Z,17.90
2018-12-22T04:22:40.260Z,18.70
2018-12-22T04:25:08.645Z,18.17
2018-12-22T04:27:36.918Z,17.70
2018-12-22T04:30:05.308Z,17.70
2018-12-22T04:32:33.438Z,17.83
2018-12-22T04:35:01.712Z,16.90
2018-12-22T04:37:29.903Z,17.00
2018-12-22T04:39:58.181Z,17.57
2018-12-22T04:42:26.633Z,16.73
2018-12-22T04:44:54.859Z,16.20
2018-12-22T04:47:23.345Z,16.17
2018-12-22T04:49:51.472Z,16.30
2018-12-22T04:52:19.679Z,15.13
2018-12-22T04:54:48.613Z,15.33
2018-12-22T04:57:16.753Z,16.50
2018-12-22T04:59:45.079Z,16.13
2018-12-22T05:02:13.284Z,15.70
2018-12-22T05:04:41.480Z,14.50
2018-12-22T05:07:09.683Z,14.70
2018-12-22T05:09:38.426Z,15.43
2018-12-22T05:12:06.696Z,15.20
2018-12-22T05:14:35.251Z,15.70
2018-12-22T05:17:03.434Z,13.90
2018-12-22T05:19:31.664Z,14.47
2018-12-22T05:21:59.900Z,15.70
2018-12-22T05:24:28.151Z,14.77
2018-12-22T05:26:56.400Z,14.57
2018-12-22T05:29:24.612Z,14.67
2018-12-22T05:31:53.061Z,14.70
2018-12-22T05:34:21.237Z,14.77
2018-12-22T05:36:49.616Z,14.23
2018-12-22T05:39:17.887Z,13.90
2018-12-22T05:41:46.177Z,15.37
2018-12-22T05:44:14.502Z,14.90
2018-12-22T05:46:42.719Z,13.70
2018-12-22T05:49:10.869Z,14.60
2018-12-22T05:51:39.043Z,14.70
2018-12-22T05:54:07.309Z,15.97
2018-12-22T05:56:35.735Z,14.03
2018-12-22T05:59:04.016Z,13.90
2018-12-22T06:01:32.505Z,14.33
2018-12-22T06:04:00.807Z,13.60
2018-12-22T06:06:29.069Z,12.97
2018-12-22T06:08:57.345Z,12.00
2018-12-22T06:11:25.588Z,13.03
2018-12-22T06:13:53.822Z,12.53
2018-12-22T06:16:21.948Z,12.73
2018-12-22T06:18:50.149Z,10.93
2018-12-22T06:21:18.404Z,11.30
2018-12-22T06:23:46.676Z,11.60
2018-12-22T06:26:14.945Z,10.53
2018-12-22T06:28:43.249Z,11.40
2018-12-22T06:31:11.494Z,11.53
2018-12-22T06:33:39.726Z,11.27
2018-12-22T06:36:08.490Z,10.30
2018-12-22T06:38:36.668Z,10.80
2018-12-22T06:41:05.548Z,11.20
2018-12-22T06:43:33.795Z,10.80
2018-12-22T06:46:02.136Z,10.80
2018-12-22T06:48:30.510Z,9.53
2018-12-22T06:50:58.890Z,10.80
2018-12-22T06:53:27.152Z,9.83
2018-12-22T06:55:56.169Z,9.33
2018-12-22T06:58:24.285Z,10.50
2018-12-22T07:00:53.059Z,10.70
2018-12-22T07:03:21.297Z,11.17
2018-12-22T07:05:49.629Z,10.73
2018-12-22T07:08:17.820Z,14.30
2018-12-22T07:10:46.019Z,11.23
2018-12-22T07:13:14.215Z,11.57
2018-12-22T07:15:42.425Z,10.87
2018-12-22T07:18:10.835Z,10.30
2018-12-22T07:20:39.030Z,11.20
2018-12-22T07:23:07.439Z,9.37
2018-12-22T07:25:35.793Z,11.00
2018-12-22T07:28:04.058Z,12.10
2018-12-22T07:30:32.310Z,12.17
2018-12-22T07:33:00.418Z,11.60
2018-12-22T07:35:28.599Z,10.63
2018-12-22T07:37:56.855Z,10.73
2018-12-22T07:40:25.070Z,11.43
2018-12-22T07:42:53.367Z,11.10
2018-12-22T07:45:21.601Z,9.73
2018-12-22T07:47:49.805Z,10.33
2018-12-22T07:50:18.116Z,11.80
2018-12-22T07:52:51.573Z,10.83
2018-12-22T07:55:16.560Z,10.40
2018-12-22T07:57:44.803Z,10.63
2018-12-22T08:00:13.071Z,10.60
2018-12-22T08:02:41.512Z,10.07
2018-12-22T08:05:09.747Z,9.33
2018-12-22T08:07:38.144Z,10.10
2018-12-22T08:10:07.036Z,10.40
2018-12-22T08:12:35.418Z,10.83
2018-12-22T08:15:03.813Z,9.87
2018-12-22T08:17:31.999Z,10.83
2018-12-22T08:20:00.347Z,11.70
2018-12-22T08:22:28.563Z,11.30
2018-12-22T08:24:56.868Z,9.80
2018-12-22T08:27:25.179Z,10.60
2018-12-22T08:29:53.441Z,12.23
2018-12-22T08:32:21.724Z,11.57
2018-12-22T08:34:49.992Z,11.80
2018-12-22T08:37:18.258Z,11.20
2018-12-22T08:39:46.583Z,11.33
2018-12-22T08:42:14.921Z,11.93
2018-12-22T08:44:43.230Z,11.70
2018-12-22T08:47:11.424Z,13.53
2018-12-22T08:49:39.672Z,11.60
2018-12-22T08:52:07.814Z,11.33
2018-12-22T08:54:36.188Z,12.80
2018-12-22T08:57:04.418Z,13.43
2018-12-22T08:59:32.746Z,16.80
2018-12-22T09:02:01.020Z,12.97
2018-12-22T09:04:29.243Z,13.23
2018-12-22T09:06:57.733Z,13.90
2018-12-22T09:09:25.971Z,12.33
2018-12-22T09:11:54.233Z,16.00
2018-12-22T09:14:22.458Z,13.50
2018-12-22T09:16:50.879Z,14.10
2018-12-22T09:19:19.078Z,12.47
2018-12-22T09:21:47.277Z,13.63
2018-12-22T09:24:16.208Z,12.60
2018-12-22T09:26:44.403Z,13.17
2018-12-22T09:29:12.735Z,13.00
2018-12-22T09:31:41.018Z,13.00
2018-12-22T09:34:13.240Z,12.03
2018-12-22T09:36:39.491Z,12.13
2018-12-22T09:39:08.302Z,12.37
2018-12-22T09:41:36.692Z,11.23
2018-12-22T09:44:04.998Z,11.10
2018-12-22T09:46:33.096Z,11.13
2018-12-22T09:49:01.353Z,10.60
2018-12-22T09:51:29.712Z,11.60
2018-12-22T09:53:58.409Z,11.00
2018-12-22T09:56:26.667Z,10.97
2018-12-22T09:58:54.926Z,15.07
2018-12-22T10:01:23.110Z,23.10
2018-12-22T10:03:51.244Z,18.33
2018-12-22T10:06:19.318Z,11.40
2018-12-22T10:08:47.536Z,13.97
2018-12-22T10:11:15.798Z,12.67
2018-12-22T10:13:43.974Z,12.40
2018-12-22T10:16:12.304Z,11.30
2018-12-22T10:18:40.701Z,11.60
2018-12-22T10:21:08.897Z,12.20
2018-12-22T10:23:37.344Z,11.57
2018-12-22T10:26:05.615Z,12.57
2018-12-22T10:28:33.896Z,10.83
2018-12-22T10:31:02.128Z,11.73
2018-12-22T10:33:30.352Z,10.53
2018-12-22T10:35:58.518Z,10.77
2018-12-22T10:38:26.797Z,11.80
2018-12-22T10:40:55.139Z,10.80
2018-12-22T10:43:23.257Z,10.33
2018-12-22T10:45:51.367Z,23.97
2018-12-22T10:48:19.687Z,15.30
2018-12-22T10:50:47.905Z,11.63
2018-12-22T10:53:16.151Z,12.73
2018-12-22T10:55:44.384Z,14.83
2018-12-22T10:58:12.824Z,10.33
2018-12-22T11:00:41.044Z,10.47
2018-12-22T11:03:09.147Z,9.90
2018-12-22T11:05:37.447Z,9.97
2018-12-22T11:08:05.702Z,9.80
2018-12-22T11:10:33.986Z,14.70
2018-12-22T11:13:02.530Z,9.07
2018-12-22T11:15:31.119Z,9.23
2018-12-22T11:17:59.291Z,9.20
2018-12-22T11:20:27.763Z,9.30
2018-12-22T11:22:55.901Z,9.90
2018-12-22T11:25:25.803Z,11.03
2018-12-22T11:27:54.115Z,10.47
2018-12-22T11:30:27.790Z,10.77
2018-12-22T11:32:56.089Z,10.27
2018-12-22T11:35:24.565Z,10.60
2018-12-22T11:37:52.823Z,10.07
2018-12-22T11:40:21.148Z,11.03
2018-12-22T11:42:49.916Z,12.10
2018-12-22T11:45:18.794Z,12.33
2018-12-22T11:47:53.023Z,10.73
2018-12-22T11:50:24.493Z,10.73
2018-12-22T11:52:52.651Z,10.20
2018-12-22T11:55:21.703Z,9.80
2018-12-22T11:57:50.102Z,10.00
2018-12-22T12:00:18.672Z,9.60
2018-12-22T12:02:47.017Z,9.93
2018-12-22T12:05:15.692Z,9.63
2018-12-22T12:07:44.025Z,9.40
2018-12-22T12:10:12.410Z,9.47
2018-12-22T12:12:40.720Z,9.97
2018-12-22T12:15:15.457Z,9.90
2018-12-22T12:18:02.734Z,10.73
2018-12-22T12:20:31.018Z,10.77
2018-12-22T12:22:59.236Z,11.20
2018-12-22T12:25:27.672Z,11.40
2018-12-22T12:27:55.920Z,12.30
2018-12-22T12:30:24.272Z,11.20
2018-12-22T12:32:52.492Z,11.47
2018-12-22T12:35:20.801Z,11.70
2018-12-22T12:37:48.942Z,10.50
2018-12-22T12:40:18.458Z,10.57
2018-12-22T12:42:46.924Z,10.63
2018-12-22T12:45:15.191Z,10.67
2018-12-22T12:47:44.563Z,11.07
2018-12-22T12:50:15.385Z,11.03
2018-12-22T12:52:43.730Z,11.70
2018-12-22T12:55:12.119Z,10.00
2018-12-22T12:57:40.420Z,9.93
2018-12-22T13:00:11.132Z,9.70
2018-12-22T13:02:39.421Z,9.47
2018-12-22T13:05:08.654Z,8.70
2018-12-22T13:07:37.280Z,9.00
2018-12-22T13:10:07.779Z,9.03
2018-12-22T13:12:56.725Z,8.57
2018-12-22T13:15:25.049Z,8.60
2018-12-22T13:17:53.361Z,9.10
2018-12-22T13:20:21.877Z,9.07
2018-12-22T13:22:50.428Z,9.07
2018-12-22T13:25:18.764Z,9.20
2018-12-22T13:27:47.053Z,9.37
2018-12-22T13:30:15.321Z,9.90
2018-12-22T13:32:43.690Z,9.97
2018-12-22T13:35:12.158Z,9.93
2018-12-22T13:37:40.891Z,10.13
2018-12-22T13:40:10.359Z,10.20
2018-12-22T13:42:38.755Z,10.70
2018-12-22T13:45:07.999Z,10.07
2018-12-22T13:47:36.643Z,11.07
2018-12-22T13:50:06.834Z,10.33
2018-12-22T13:52:35.717Z,14.10
2018-12-22T13:55:04.461Z,11.17
2018-12-22T13:57:32.839Z,11.00
2018-12-22T14:00:01.356Z,10.30
2018-12-22T14:02:30.960Z,10.53
2018-12-22T14:04:59.235Z,10.67
2018-12-22T14:07:27.541Z,10.13
2018-12-22T14:09:55.866Z,10.93
2018-12-22T14:12:25.411Z,10.43
2018-12-22T14:14:54.234Z,10.97
2018-12-22T14:17:29.173Z,10.90
2018-12-22T14:20:02.387Z,11.07
2018-12-22T14:22:33.072Z,10.43
2018-12-22T14:25:02.154Z,10.20
2018-12-22T14:27:32.807Z,10.83
2018-12-22T14:30:01.158Z,10.73
2018-12-22T14:32:29.461Z,10.60
2018-12-22T14:35:06.164Z,11.57
2018-12-22T14:37:34.576Z,11.40
2018-12-22T14:40:03.335Z,11.40
2018-12-22T14:42:31.784Z,10.90
2018-12-22T14:45:00.269Z,11.20
2018-12-22T14:47:28.679Z,11.70
2018-12-22T14:49:56.985Z,10.93
2018-12-22T14:52:25.332Z,11.00
2018-12-22T14:54:53.702Z,11.50
2018-12-22T14:57:22.115Z,11.73
2018-12-22T14:59:50.664Z,11.90
2018-12-22T15:02:19.059Z,11.40
2018-12-22T15:04:48.863Z,11.30
2018-12-22T15:07:18.802Z,11.57
2018-12-22T15:09:48.507Z,11.50
2018-12-22T15:12:17.672Z,11.80
2018-12-22T15:14:48.731Z,11.67
2018-12-22T15:17:17.912Z,11.43
2018-12-22T15:19:46.402Z,12.80
2018-12-22T15:22:19.171Z,12.20
2018-12-22T15:24:48.298Z,12.30
2018-12-22T15:27:18.824Z,12.30
2018-12-22T15:29:47.571Z,12.30
2018-12-22T15:32:16.191Z,12.30
2018-12-22T15:34:45.138Z,12.20
2018-12-22T15:37:14.919Z,12.43
2018-12-22T15:39:44.840Z,12.30
2018-12-22T15:42:13.989Z,11.90
2018-12-22T15:44:43.472Z,11.83
2018-12-22T15:47:13.920Z,11.70
2018-12-22T15:49:50.391Z,12.30
2018-12-22T15:52:19.390Z,12.80
2018-12-22T15:54:48.482Z,13.00
2018-12-22T15:57:17.236Z,12.33
2018-12-22T15:59:45.449Z,12.30
2018-12-22T16:02:14.770Z,12.17
2018-12-22T16:04:44.361Z,12.30
2018-12-22T16:07:12.931Z,12.20
2018-12-22T16:09:41.965Z,12.47
2018-12-22T16:12:11.916Z,12.67
2018-12-22T16:14:40.812Z,12.83
2018-12-22T16:17:09.145Z,12.10
2018-12-22T16:19:37.634Z,12.17
2018-12-22T16:22:07.269Z,11.83
2018-12-22T16:24:35.754Z,11.63
2018-12-22T16:27:04.322Z,11.30
2018-12-22T16:29:38.083Z,11.70
2018-12-22T16:32:06.445Z,11.53
2018-12-22T16:34:35.207Z,11.40
2018-12-22T16:37:05.156Z,11.30
2018-12-22T16:39:34.157Z,10.53
2018-12-22T16:42:03.430Z,10.30
2018-12-22T16:44:32.448Z,10.70
2018-12-22T16:47:01.184Z,12.50
2018-12-22T16:49:29.549Z,12.07
2018-12-22T16:51:57.932Z,12.97
2018-12-22T16:54:26.207Z,11.20
2018-12-22T16:56:54.403Z,11.37
2018-12-22T16:59:23.318Z,11.07
2018-12-22T17:01:57.153Z,11.27
2018-12-22T17:04:25.933Z,10.50
2018-12-22T17:06:54.325Z,11.03
2018-12-22T17:09:22.472Z,10.43
2018-12-22T17:11:51.165Z,11.97
2018-12-22T17:14:19.498Z,9.70
2018-12-22T17:16:48.141Z,9.87
2018-12-22T17:19:16.447Z,9.67
2018-12-22T17:22:01.563Z,10.10
2018-12-22T17:24:37.778Z,9.90
2018-12-22T17:27:06.192Z,9.50
2018-12-22T17:29:34.649Z,10.00
2018-12-22T17:32:03.237Z,9.30
2018-12-22T17:34:31.542Z,9.20
2018-12-22T17:37:00.003Z,9.00
2018-12-22T17:39:36.525Z,9.70
2018-12-22T17:41:58.712Z,10.13
2018-12-22T17:44:26.996Z,10.13
2018-12-22T17:46:55.564Z,11.00
2018-12-22T17:49:24.022Z,9.40
2018-12-22T17:51:52.396Z,9.73
2018-12-22T17:54:20.880Z,10.40
2018-12-22T17:56:49.232Z,11.27
2018-12-22T17:59:17.559Z,10.37
2018-12-22T18:01:46.100Z,9.67
2018-12-22T18:04:14.455Z,10.37
2018-12-22T18:06:43.783Z,9.67
2018-12-22T18:09:12.270Z,11.10
2018-12-22T18:11:40.569Z,10.30
2018-12-22T18:14:08.891Z,13.17
2018-12-22T18:16:37.137Z,11.53
2018-12-22T18:19:05.481Z,9.73
2018-12-22T18:21:33.823Z,14.77
2018-12-22T18:24:02.231Z,10.60
2018-12-22T18:26:30.806Z,10.47
2018-12-22T18:28:59.357Z,10.20
2018-12-22T18:31:27.648Z,10.53
2018-12-22T18:33:56.075Z,9.67
2018-12-22T18:36:24.404Z,10.03
2018-12-22T18:38:52.717Z,10.40
2018-12-22T18:41:21.308Z,11.53
2018-12-22T18:43:49.608Z,10.97
2018-12-22T18:46:17.993Z,10.13
2018-12-22T18:48:46.390Z,11.40
2018-12-22T18:51:14.813Z,10.70
2018-12-22T18:53:43.286Z,12.20
2018-12-22T18:56:12.204Z,10.40
2018-12-22T18:58:40.644Z,11.40
2018-12-22T19:01:09.975Z,10.20
2018-12-22T19:03:44.712Z,10.23
2018-12-22T19:06:09.150Z,11.33
2018-12-22T19:08:37.685Z,10.13
2018-12-22T19:11:09.165Z,9.87
2018-12-22T19:13:38.736Z,11.27
2018-12-22T19:16:07.175Z,9.90
2018-12-22T19:18:36.307Z,9.27
2018-12-22T19:21:05.404Z,9.10
2018-12-22T19:23:33.641Z,9.17
2018-12-22T19:26:01.987Z,8.50
2018-12-22T19:28:30.336Z,8.47
2018-12-22T19:30:58.698Z,8.57
2018-12-22T19:33:27.008Z,8.27
2018-12-22T19:35:55.384Z,8.53
2018-12-22T19:38:23.790Z,7.83
2018-12-22T19:40:52.216Z,9.07
2018-12-22T19:43:20.632Z,8.50
2018-12-22T19:45:48.941Z,9.00
2018-12-22T19:48:17.332Z,8.57
2018-12-22T19:50:45.848Z,9.70
2018-12-22T19:53:14.224Z,9.27
2018-12-22T19:55:43.564Z,10.90
2018-12-22T19:58:13.848Z,11.07
2018-12-22T20:00:43.318Z,9.60
2018-12-22T20:03:15.123Z,9.67
2018-12-22T20:05:44.867Z,8.50
2018-12-22T20:08:15.195Z,9.00
2018-12-22T20:10:45.223Z,9.33
2018-12-22T20:13:15.085Z,10.80
2018-12-22T20:15:45.109Z,9.87
2018-12-22T20:18:13.629Z,9.37
2018-12-22T20:20:42.338Z,10.23
2018-12-22T20:23:10.953Z,9.80
2018-12-22T20:25:39.858Z,9.47
2018-12-22T20:28:08.511Z,9.90
2018-12-22T20:30:37.010Z,10.60
2018-12-22T20:33:06.537Z,10.23
2018-12-22T20:35:36.417Z,11.97
2018-12-22T20:38:04.767Z,11.20
2018-12-22T20:40:33.420Z,12.13
2018-12-22T20:43:02.006Z,12.13
2018-12-22T20:45:30.317Z,12.17
2018-12-22T20:47:58.671Z,11.30
2018-12-22T20:50:27.172Z,11.00
2018-12-22T20:52:55.628Z,11.90
2018-12-22T20:55:24.103Z,11.90
2018-12-22T20:57:52.584Z,11.20
2018-12-22T21:00:23.261Z,11.20
2018-12-22T21:02:52.098Z,12.10
2018-12-22T21:05:22.210Z,12.57
2018-12-22T21:07:53.153Z,12.57
2018-12-22T21:10:22.743Z,11.93
2018-12-22T21:13:18.181Z,11.43
2018-12-22T21:15:46.883Z,12.40
2018-12-22T21:18:15.191Z,12.93
2018-12-22T21:20:43.543Z,12.63
2018-12-22T21:23:12.032Z,11.90
2018-12-22T21:25:40.461Z,12.23
2018-12-22T21:28:09.169Z,13.20
2018-12-22T21:30:37.651Z,12.30
2018-12-22T21:33:08.378Z,12.40
2018-12-22T21:35:38.103Z,12.23
2018-12-22T21:38:06.556Z,12.67
2018-12-22T21:40:40.091Z,13.83
2018-12-22T21:43:08.446Z,11.67
2018-12-22T21:45:36.841Z,11.50
2018-12-22T21:48:05.286Z,11.77
2018-12-22T21:50:33.580Z,11.07
2018-12-22T21:53:01.823Z,10.53
2018-12-22T21:55:30.169Z,11.07
2018-12-22T21:57:58.441Z,11.40
2018-12-22T22:00:26.699Z,10.43
2018-12-22T22:02:57.202Z,11.70
2018-12-22T22:05:28.486Z,10.93
2018-12-22T22:07:56.749Z,10.60
2018-12-22T22:10:25.669Z,10.23
2018-12-22T22:12:53.862Z,11.63
2018-12-22T22:15:22.110Z,10.77
2018-12-22T22:17:50.411Z,11.60
2018-12-22T22:20:18.746Z,11.87
2018-12-22T22:22:47.391Z,10.90
2018-12-22T22:25:15.703Z,12.50
2018-12-22T22:27:44.492Z,12.73
2018-12-22T22:30:13.007Z,12.50
2018-12-22T22:32:41.540Z,12.77
2018-12-22T22:35:09.938Z,13.37
2018-12-22T22:37:38.933Z,12.73
2018-12-22T22:40:07.309Z,13.30
2018-12-22T22:42:35.993Z,14.00
2018-12-22T22:45:04.623Z,13.40
2018-12-22T22:47:32.892Z,12.50
2018-12-22T22:50:01.174Z,12.90
2018-12-22T22:52:29.474Z,13.67
2018-12-22T22:54:57.798Z,13.43
2018-12-22T22:57:26.093Z,14.50
2018-12-22T22:59:54.389Z,13.50
2018-12-22T23:02:22.663Z,14.40
2018-12-22T23:04:54.596Z,14.20
2018-12-22T23:07:21.355Z,13.70
2018-12-22T23:09:49.970Z,14.10
2018-12-22T23:12:18.190Z,13.80
2018-12-22T23:14:46.693Z,13.70
2018-12-22T23:17:14.954Z,13.90
2018-12-22T23:19:43.439Z,14.17
2018-12-22T23:22:11.815Z,14.63
2018-12-22T23:24:40.293Z,13.80
2018-12-22T23:27:08.738Z,14.30
2018-12-22T23:29:37.138Z,14.33
2018-12-22T23:32:05.500Z,14.20
2018-12-22T23:34:35.319Z,14.67
2018-12-22T23:37:03.592Z,13.43
2018-12-22T23:39:31.950Z,14.30
2018-12-22T23:42:00.294Z,14.07
2018-12-22T23:44:28.608Z,13.73
2018-12-22T23:46:57.228Z,14.50
2018-12-22T23:49:25.494Z,13.90
2018-12-22T23:51:54.064Z,15.10
2018-12-22T23:54:22.176Z,15.13
2018-12-22T23:56:50.486Z,13.40
2018-12-22T23:59:18.821Z,13.43
